Time;durP1;ratioP1;P1;durP2;ratioP2;P2;SDS_P1;SDS_P2;PMS_P1;PMS_P2;Temp;Humidity;BMP_temperature;BMP_pressure;BME280_temperature;BME280_humidity;BME280_pressure;Samples;Min_cycle;Max_cycle;Signal;HPM_P1;HPM_P2
2022/07/18 00:01:36;;;;;;;15.55;11.43;;;;;;;;;;4876866;29;20056;-72
2022/07/18 00:04:02;;;;;;;14.38;9.93;;;;;;;;;;4876740;29;20052;-72
2022/07/18 00:06:28;;;;;;;10.63;9.63;;;;;;;;;;4876664;29;20049;-72
2022/07/18 00:08:54;;;;;;;9.98;8.98;;;;;;;;;;4875638;29;20430;-72
2022/07/18 00:11:20;;;;;;;13.57;10.23;;;;;;;;;;4876689;29;20449;-73
2022/07/18 00:13:46;;;;;;;13.68;11.57;;;;;;;;;;4859966;29;20120;-74
2022/07/18 00:16:12;;;;;;;11.18;10.07;;;;;;;;;;4876866;29;20057;-72
2022/07/18 00:18:38;;;;;;;15.05;12.85;;;;;;;;;;4876534;29;20064;-72
2022/07/18 00:21:04;;;;;;;17.40;14.75;;;;;;;;;;4876740;29;20053;-72
2022/07/18 00:23:30;;;;;;;17.38;13.55;;;;;;;;;;4876110;29;20052;-71
2022/07/18 00:25:56;;;;;;;15.60;13.98;;;;;;;;;;4876593;29;20127;-72
2022/07/18 00:28:22;;;;;;;22.55;15.07;;;;;;;;;;4859477;29;20411;-72
2022/07/18 00:30:48;;;;;;;19.20;13.77;;;;;;;;;;4859823;29;20071;-71
2022/07/18 00:33:13;;;;;;;12.35;10.02;;;;;;;;;;4859647;29;20120;-72
2022/07/18 00:35:39;;;;;;;10.00;8.05;;;;;;;;;;4876024;29;20100;-71
2022/07/18 00:38:05;;;;;;;8.60;7.55;;;;;;;;;;4876371;29;20052;-73
2022/07/18 00:40:31;;;;;;;7.97;6.80;;;;;;;;;;4876182;29;20112;-72
2022/07/18 00:42:57;;;;;;;8.40;6.90;;;;;;;;;;4859413;29;20040;-72
2022/07/18 00:45:23;;;;;;;7.25;6.55;;;;;;;;;;4874769;29;20514;-73
2022/07/18 00:47:52;;;;;;;7.53;6.78;;;;;;;;;;4876014;29;20063;-71
2022/07/18 00:50:18;;;;;;;10.30;6.50;;;;;;;;;;4876328;29;20041;-72
2022/07/18 00:52:44;;;;;;;7.95;6.60;;;;;;;;;;4859004;29;20136;-72
2022/07/18 00:55:10;;;;;;;6.40;5.85;;;;;;;;;;4876011;29;20061;-72
2022/07/18 00:57:36;;;;;;;8.13;5.82;;;;;;;;;;4875791;29;20040;-72
2022/07/18 01:02:52;;;;;;;7.18;6.57;;;;;;;;;;4876078;29;20041;-72
2022/07/18 01:05:18;;;;;;;10.52;6.35;;;;;;;;;;4876308;29;20055;-72
2022/07/18 01:07:44;;;;;;;6.93;6.32;;;;;;;;;;4876312;29;20053;-73
2022/07/18 01:10:10;;;;;;;7.68;6.85;;;;;;;;;;4880434;29;20049;-73
2022/07/18 01:12:35;;;;;;;7.45;6.85;;;;;;;;;;4882787;29;20044;-72
2022/07/18 01:15:02;;;;;;;7.82;6.75;;;;;;;;;;4877068;29;20057;-71
2022/07/18 01:17:28;;;;;;;7.35;6.32;;;;;;;;;;4876740;29;20045;-73
2022/07/18 01:19:54;;;;;;;7.90;7.10;;;;;;;;;;4879074;29;20051;-73
2022/07/18 01:22:20;;;;;;;7.47;6.72;;;;;;;;;;4863257;29;20049;-74
2022/07/18 01:24:47;;;;;;;7.30;6.30;;;;;;;;;;4879818;29;20048;-73
2022/07/18 01:27:19;;;;;;;6.40;5.80;;;;;;;;;;4880545;29;20037;-73
2022/07/18 01:29:45;;;;;;;6.88;6.18;;;;;;;;;;4879614;29;20514;-72
2022/07/18 01:32:12;;;;;;;7.32;6.70;;;;;;;;;;4879992;29;20040;-73
2022/07/18 01:34:37;;;;;;;7.15;6.53;;;;;;;;;;4878027;29;20088;-72
2022/07/18 01:37:04;;;;;;;9.50;6.63;;;;;;;;;;4879510;29;20065;-71
2022/07/18 01:39:30;;;;;;;8.68;7.30;;;;;;;;;;4879279;29;20571;-74
2022/07/18 01:41:56;;;;;;;8.68;6.63;;;;;;;;;;4879567;29;20045;-73
2022/07/18 01:44:22;;;;;;;7.82;6.00;;;;;;;;;;4862551;29;20128;-72
2022/07/18 01:46:48;;;;;;;7.10;6.55;;;;;;;;;;4862327;29;20045;-73
2022/07/18 01:49:14;;;;;;;10.82;8.00;;;;;;;;;;4862473;29;20056;-74
2022/07/18 01:51:44;;;;;;;9.57;7.68;;;;;;;;;;4879721;29;20048;-73
2022/07/18 01:54:10;;;;;;;9.45;8.38;;;;;;;;;;4880329;29;20053;-73
2022/07/18 01:56:35;;;;;;;9.55;8.65;;;;;;;;;;4880984;29;20109;-73
2022/07/18 01:59:02;;;;;;;13.60;12.35;;;;;;;;;;4864118;29;20060;-72
2022/07/18 02:01:27;;;;;;;14.70;13.05;;;;;;;;;;4880654;29;20124;-74
2022/07/18 02:03:53;;;;;;;16.48;14.80;;;;;;;;;;4880382;29;20055;-72
2022/07/18 02:06:19;;;;;;;14.70;13.38;;;;;;;;;;4881974;29;20524;-72
2022/07/18 02:08:45;;;;;;;13.32;11.88;;;;;;;;;;4882212;29;20556;-73
2022/07/18 02:11:11;;;;;;;12.77;10.40;;;;;;;;;;4881950;29;20068;-74
2022/07/18 02:13:37;;;;;;;11.25;9.70;;;;;;;;;;4882877;29;20189;-74
2022/07/18 02:16:03;;;;;;;13.45;9.52;;;;;;;;;;4880971;29;20041;-75
2022/07/18 02:18:32;;;;;;;11.27;9.13;;;;;;;;;;4881500;29;20049;-73
2022/07/18 02:20:58;;;;;;;10.60;9.45;;;;;;;;;;4882294;29;20056;-72
2022/07/18 02:23:24;;;;;;;12.50;10.88;;;;;;;;;;4882705;29;20426;-73
2022/07/18 02:25:50;;;;;;;10.02;9.23;;;;;;;;;;4882892;29;20045;-73
2022/07/18 02:28:16;;;;;;;12.55;9.57;;;;;;;;;;4867060;29;20519;-72
2022/07/18 02:30:42;;;;;;;13.60;9.05;;;;;;;;;;4883338;29;20051;-72
2022/07/18 02:33:08;;;;;;;9.00;8.30;;;;;;;;;;4882151;29;20052;-72
2022/07/18 02:35:34;;;;;;;7.25;6.57;;;;;;;;;;4881940;29;20061;-73
2022/07/18 02:38:00;;;;;;;8.30;7.47;;;;;;;;;;4884572;29;20048;-73
2022/07/18 02:40:26;;;;;;;10.30;7.38;;;;;;;;;;4883167;29;20472;-74
2022/07/18 02:42:52;;;;;;;8.30;7.55;;;;;;;;;;4884012;29;20097;-73
2022/07/18 02:45:18;;;;;;;8.25;7.45;;;;;;;;;;4880700;29;20100;-72
2022/07/18 02:47:43;;;;;;;7.25;6.63;;;;;;;;;;4864492;29;20425;-72
2022/07/18 02:50:09;;;;;;;10.40;7.53;;;;;;;;;;4881285;29;20068;-72
2022/07/18 02:52:35;;;;;;;7.20;6.50;;;;;;;;;;4881725;29;20113;-72
2022/07/18 02:55:02;;;;;;;7.85;7.05;;;;;;;;;;4881151;29;20067;-73
2022/07/18 02:57:28;;;;;;;7.80;7.03;;;;;;;;;;4881434;29;20040;-72
2022/07/18 02:59:54;;;;;;;9.27;7.22;;;;;;;;;;4880390;29;20101;-73
2022/07/18 03:02:20;;;;;;;9.60;7.10;;;;;;;;;;4880174;29;20044;-73
2022/07/18 03:04:46;;;;;;;8.05;7.28;;;;;;;;;;4890620;29;20532;-74
2022/07/18 03:07:12;;;;;;;10.70;7.35;;;;;;;;;;4878803;29;20041;-72
2022/07/18 03:09:37;;;;;;;8.93;8.00;;;;;;;;;;4878132;29;20099;-72
2022/07/18 03:12:03;;;;;;;9.18;7.82;;;;;;;;;;4878153;29;20189;-72
2022/07/18 03:14:29;;;;;;;8.98;8.10;;;;;;;;;;4877691;29;20060;-73
2022/07/18 03:16:55;;;;;;;10.50;7.60;;;;;;;;;;4861054;29;20041;-72
2022/07/18 03:19:21;;;;;;;8.00;7.20;;;;;;;;;;4876718;29;20522;-73
2022/07/18 03:21:47;;;;;;;8.70;7.72;;;;;;;;;;4877294;29;20185;-72
2022/07/18 03:24:14;;;;;;;11.93;9.00;;;;;;;;;;4877564;29;20513;-72
2022/07/18 03:26:40;;;;;;;8.48;7.78;;;;;;;;;;4877703;29;20051;-72
2022/07/18 03:29:06;;;;;;;9.73;8.60;;;;;;;;;;4877863;29;20081;-74
2022/07/18 03:31:32;;;;;;;12.45;8.55;;;;;;;;;;4877662;29;20065;-74
2022/07/18 03:33:57;;;;;;;9.88;8.07;;;;;;;;;;4877386;29;20100;-75
2022/07/18 03:36:23;;;;;;;10.00;7.80;;;;;;;;;;4876337;29;20037;-71
2022/07/18 03:38:49;;;;;;;8.68;7.88;;;;;;;;;;4876983;29;20524;-73
2022/07/18 03:41:15;;;;;;;8.95;8.07;;;;;;;;;;4877594;29;20044;-73
2022/07/18 03:43:41;;;;;;;15.60;7.60;;;;;;;;;;4879346;29;20053;-72
2022/07/18 03:46:07;;;;;;;12.60;8.73;;;;;;;;;;4879023;29;20109;-72
2022/07/18 03:48:33;;;;;;;10.43;9.05;;;;;;;;;;4860973;29;20053;-73
2022/07/18 03:50:59;;;;;;;10.10;8.75;;;;;;;;;;4878326;29;20053;-74
2022/07/18 03:53:26;;;;;;;8.73;7.97;;;;;;;;;;4877428;29;20078;-73
2022/07/18 03:55:54;;;;;;;11.73;8.45;;;;;;;;;;4877231;29;20418;-72
2022/07/18 03:58:20;;;;;;;11.20;9.13;;;;;;;;;;4875803;29;20579;-72
2022/07/18 04:00:46;;;;;;;9.00;8.15;;;;;;;;;;4876835;29;20133;-71
2022/07/18 04:03:12;;;;;;;10.95;9.50;;;;;;;;;;4875619;29;20124;-71
2022/07/18 04:05:38;;;;;;;11.73;8.98;;;;;;;;;;4876615;29;20044;-70
2022/07/18 04:08:04;;;;;;;9.38;8.38;;;;;;;;;;4876704;29;20041;-71
2022/07/18 04:10:30;;;;;;;16.65;8.63;;;;;;;;;;4875532;29;20158;-71
2022/07/18 04:12:56;;;;;;;10.60;9.50;;;;;;;;;;4876475;29;20055;-71
2022/07/18 04:15:22;;;;;;;13.98;10.20;;;;;;;;;;4876392;29;20049;-72
2022/07/18 04:17:49;;;;;;;10.13;9.25;;;;;;;;;;4876206;29;20045;-71
2022/07/18 04:20:15;;;;;;;9.60;8.45;;;;;;;;;;4876450;29;20084;-71
2022/07/18 04:22:54;;;;;;;13.00;9.38;;;;;;;;;;4874604;29;20044;-71
2022/07/18 04:25:20;;;;;;;11.45;9.55;;;;;;;;;;4874293;29;20605;-71
2022/07/18 04:27:46;;;;;;;9.57;8.77;;;;;;;;;;4875242;29;20104;-69
2022/07/18 04:30:13;;;;;;;15.50;8.23;;;;;;;;;;4876679;29;20037;-70
2022/07/18 04:32:39;;;;;;;9.60;8.70;;;;;;;;;;4876440;29;20057;-71
2022/07/18 04:35:05;;;;;;;9.57;8.25;;;;;;;;;;4876344;29;20114;-73
2022/07/18 04:37:32;;;;;;;9.10;7.70;;;;;;;;;;4876252;29;20087;-73
2022/07/18 04:39:58;;;;;;;7.90;7.22;;;;;;;;;;4875820;29;20041;-74
2022/07/18 04:42:24;;;;;;;9.02;8.23;;;;;;;;;;4876547;29;20052;-74
2022/07/18 04:44:50;;;;;;;9.88;8.93;;;;;;;;;;4875919;29;20037;-73
2022/07/18 04:47:16;;;;;;;8.77;7.97;;;;;;;;;;4876211;29;20128;-74
2022/07/18 04:49:42;;;;;;;9.82;8.13;;;;;;;;;;4875831;29;20128;-74
2022/07/18 04:52:08;;;;;;;9.20;8.10;;;;;;;;;;4844160;29;20057;-72
2022/07/18 04:54:34;;;;;;;11.35;8.88;;;;;;;;;;4875388;29;20056;-73
2022/07/18 04:57:01;;;;;;;8.75;7.93;;;;;;;;;;4887628;29;20053;-71
2022/07/18 04:59:26;;;;;;;7.32;6.72;;;;;;;;;;4878251;29;20048;-72
2022/07/18 05:01:52;;;;;;;9.25;7.90;;;;;;;;;;4874836;29;20041;-71
2022/07/18 05:04:18;;;;;;;8.40;6.60;;;;;;;;;;4874791;29;20045;-71
2022/07/18 05:06:44;;;;;;;7.82;7.13;;;;;;;;;;4875711;29;20106;-71
2022/07/18 05:09:10;;;;;;;9.77;7.65;;;;;;;;;;4875831;29;20074;-72
2022/07/18 05:11:35;;;;;;;10.70;7.72;;;;;;;;;;4859044;29;20479;-72
2022/07/18 05:14:01;;;;;;;12.02;7.38;;;;;;;;;;4875433;29;20507;-71
2022/07/18 05:16:27;;;;;;;15.55;8.50;;;;;;;;;;4876038;29;20045;-70
2022/07/18 05:18:53;;;;;;;12.30;6.55;;;;;;;;;;4858902;29;20077;-73
2022/07/18 05:21:19;;;;;;;11.85;7.47;;;;;;;;;;4859238;29;20474;-72
2022/07/18 05:23:45;;;;;;;6.72;6.03;;;;;;;;;;4874379;29;20124;-72
2022/07/18 05:26:11;;;;;;;7.07;6.07;;;;;;;;;;4875882;29;20510;-74
2022/07/18 05:28:37;;;;;;;7.13;6.45;;;;;;;;;;4874779;29;20053;-73
2022/07/18 05:31:03;;;;;;;7.15;6.35;;;;;;;;;;4875635;29;20049;-72
2022/07/18 05:33:29;;;;;;;10.50;6.32;;;;;;;;;;4875545;29;20121;-73
2022/07/18 05:35:55;;;;;;;8.52;7.03;;;;;;;;;;4875843;29;20133;-73
2022/07/18 05:38:21;;;;;;;12.45;7.43;;;;;;;;;;4876060;29;20064;-73
2022/07/18 05:40:47;;;;;;;7.78;6.63;;;;;;;;;;4875832;29;20587;-72
2022/07/18 05:43:13;;;;;;;8.52;6.75;;;;;;;;;;4876012;29;20077;-73
2022/07/18 05:45:39;;;;;;;11.50;6.90;;;;;;;;;;4875739;29;20049;-72
2022/07/18 05:48:05;;;;;;;8.75;6.88;;;;;;;;;;4858961;29;20056;-72
2022/07/18 05:50:31;;;;;;;8.00;7.20;;;;;;;;;;4875532;29;20045;-73
2022/07/18 05:52:56;;;;;;;9.15;8.20;;;;;;;;;;4858922;29;20592;-73
2022/07/18 05:55:22;;;;;;;8.88;7.95;;;;;;;;;;4875676;29;20064;-74
2022/07/18 05:57:49;;;;;;;8.55;7.70;;;;;;;;;;4858812;29;20073;-73
2022/07/18 06:00:15;;;;;;;10.90;7.78;;;;;;;;;;4875558;29;20466;-73
2022/07/18 06:02:41;;;;;;;12.18;8.13;;;;;;;;;;4858789;29;20049;-74
2022/07/18 06:05:07;;;;;;;10.05;8.10;;;;;;;;;;4843529;29;20049;-73
2022/07/18 06:07:34;;;;;;;7.05;6.38;;;;;;;;;;4858968;29;20151;-74
2022/07/18 06:09:59;;;;;;;7.63;6.82;;;;;;;;;;4876047;29;20088;-72
2022/07/18 06:12:27;;;;;;;8.27;7.25;;;;;;;;;;4878894;29;20069;-74
2022/07/18 06:14:53;;;;;;;7.75;6.95;;;;;;;;;;4877107;29;20068;-74
2022/07/18 06:17:19;;;;;;;7.95;7.15;;;;;;;;;;4862007;29;20056;-73
2022/07/18 06:19:45;;;;;;;7.97;7.28;;;;;;;;;;4861764;29;20053;-73
2022/07/18 06:22:11;;;;;;;7.80;7.10;;;;;;;;;;4878746;29;20482;-75
2022/07/18 06:24:37;;;;;;;9.60;7.38;;;;;;;;;;4862174;29;20589;-74
2022/07/18 06:27:03;;;;;;;6.95;6.15;;;;;;;;;;4878300;29;20049;-73
2022/07/18 06:29:29;;;;;;;7.45;6.43;;;;;;;;;;4862380;29;20049;-74
2022/07/18 06:31:55;;;;;;;7.80;7.10;;;;;;;;;;4878994;29;20053;-74
2022/07/18 06:34:20;;;;;;;8.00;7.20;;;;;;;;;;4878619;29;20049;-73
2022/07/18 06:36:46;;;;;;;7.78;6.82;;;;;;;;;;4878244;29;20403;-72
2022/07/18 06:39:16;;;;;;;7.72;6.93;;;;;;;;;;4878343;29;20473;-74
2022/07/18 06:41:42;;;;;;;12.25;7.80;;;;;;;;;;4878342;29;20045;-74
2022/07/18 06:44:13;;;;;;;7.63;6.93;;;;;;;;;;4861813;29;20071;-73
2022/07/18 06:46:38;;;;;;;7.93;6.82;;;;;;;;;;4878635;29;20108;-74
2022/07/18 06:49:04;;;;;;;10.95;6.72;;;;;;;;;;4875456;29;20101;-74
2022/07/18 06:51:31;;;;;;;7.07;6.47;;;;;;;;;;4884398;29;20057;-73
2022/07/18 06:53:56;;;;;;;7.93;6.78;;;;;;;;;;4877867;29;20064;-72
2022/07/18 06:56:22;;;;;;;8.88;6.00;;;;;;;;;;4878188;29;20422;-74
2022/07/18 06:58:49;;;;;;;5.53;4.90;;;;;;;;;;4877682;29;20110;-74
2022/07/18 07:01:16;;;;;;;4.95;4.50;;;;;;;;;;4877882;29;20041;-75
2022/07/18 07:03:42;;;;;;;5.60;4.82;;;;;;;;;;4877698;29;20064;-74
2022/07/18 07:06:07;;;;;;;6.50;4.57;;;;;;;;;;4876565;29;20045;-74
2022/07/18 07:08:34;;;;;;;6.50;4.78;;;;;;;;;;4861354;29;20140;-74
2022/07/18 07:11:00;;;;;;;3.20;3.00;;;;;;;;;;4877632;29;20128;-73
2022/07/18 07:13:26;;;;;;;6.80;3.20;;;;;;;;;;4861354;29;20048;-74
2022/07/18 07:15:52;;;;;;;2.95;2.75;;;;;;;;;;4877425;29;20053;-72
2022/07/18 07:18:17;;;;;;;4.65;3.20;;;;;;;;;;4877600;29;20049;-73
2022/07/18 07:20:43;;;;;;;6.47;2.50;;;;;;;;;;4877593;29;20525;-73
2022/07/18 07:23:09;;;;;;;2.80;2.60;;;;;;;;;;4876913;29;20499;-73
2022/07/18 07:25:36;;;;;;;3.13;2.70;;;;;;;;;;4877597;29;20044;-73
2022/07/18 07:28:02;;;;;;;2.80;2.47;;;;;;;;;;4845487;29;20056;-73
2022/07/18 07:30:28;;;;;;;3.30;3.10;;;;;;;;;;4877692;29;20476;-73
2022/07/18 07:32:53;;;;;;;4.15;3.20;;;;;;;;;;4877628;29;20045;-72
2022/07/18 07:35:19;;;;;;;3.28;3.00;;;;;;;;;;4878655;29;20057;-73
2022/07/18 07:37:46;;;;;;;4.57;2.60;;;;;;;;;;4867454;29;20086;-73
2022/07/18 07:40:12;;;;;;;3.08;2.88;;;;;;;;;;4850798;29;20089;-72
2022/07/18 07:42:38;;;;;;;3.60;2.47;;;;;;;;;;4861742;29;20049;-74
2022/07/18 07:45:04;;;;;;;4.60;2.55;;;;;;;;;;4877166;29;20422;-75
2022/07/18 07:47:30;;;;;;;4.20;2.65;;;;;;;;;;4877245;29;20082;-73
2022/07/18 07:49:56;;;;;;;2.35;2.13;;;;;;;;;;4876969;29;20051;-73
2022/07/18 07:52:23;;;;;;;2.60;2.40;;;;;;;;;;4876996;29;20060;-73
2022/07/18 07:54:50;;;;;;;2.92;2.72;;;;;;;;;;4876680;29;20056;-74
2022/07/18 07:57:16;;;;;;;3.45;3.15;;;;;;;;;;4877320;29;20037;-73
2022/07/18 07:59:41;;;;;;;3.42;3.13;;;;;;;;;;4876799;29;20218;-72
2022/07/18 08:02:07;;;;;;;3.50;3.20;;;;;;;;;;4876888;29;20093;-73
2022/07/18 08:04:33;;;;;;;3.53;2.85;;;;;;;;;;4877330;29;20541;-74
2022/07/18 08:06:59;;;;;;;3.45;2.92;;;;;;;;;;4877012;29;20370;-74
2022/07/18 08:09:25;;;;;;;5.07;3.08;;;;;;;;;;4876826;29;20697;-74
2022/07/18 08:11:51;;;;;;;4.80;2.70;;;;;;;;;;4875265;29;20479;-74
2022/07/18 08:14:17;;;;;;;4.80;3.30;;;;;;;;;;4876858;29;20144;-72
2022/07/18 08:16:43;;;;;;;7.00;4.22;;;;;;;;;;4876743;29;20045;-74
2022/07/18 08:19:09;;;;;;;2.85;2.25;;;;;;;;;;4876590;29;20052;-73
2022/07/18 08:21:35;;;;;;;3.25;2.70;;;;;;;;;;4876833;29;20498;-74
2022/07/18 08:24:01;;;;;;;2.58;2.33;;;;;;;;;;4876163;29;20060;-75
2022/07/18 08:26:27;;;;;;;2.20;2.10;;;;;;;;;;4876815;29;20041;-73
2022/07/18 08:28:53;;;;;;;2.40;2.15;;;;;;;;;;4859802;29;20053;-73
2022/07/18 08:31:19;;;;;;;2.17;2.08;;;;;;;;;;4876584;29;20044;-75
2022/07/18 08:33:45;;;;;;;4.40;2.13;;;;;;;;;;4875893;29;20049;-74
2022/07/18 08:36:11;;;;;;;2.45;2.28;;;;;;;;;;4876371;29;20056;-73
2022/07/18 08:38:37;;;;;;;2.60;2.40;;;;;;;;;;4877503;29;20041;-74
2022/07/18 08:41:03;;;;;;;2.10;2.00;;;;;;;;;;4895213;29;20053;-74
2022/07/18 08:43:28;;;;;;;3.65;2.20;;;;;;;;;;4877876;29;20053;-74
2022/07/18 08:45:56;;;;;;;3.97;2.08;;;;;;;;;;4876218;29;20581;-73
2022/07/18 08:48:22;;;;;;;2.50;2.00;;;;;;;;;;4876240;29;20045;-74
2022/07/18 08:50:48;;;;;;;4.85;2.25;;;;;;;;;;4859181;29;20063;-73
2022/07/18 08:53:14;;;;;;;2.65;2.10;;;;;;;;;;4859336;29;20053;-73
2022/07/18 08:55:40;;;;;;;3.10;2.50;;;;;;;;;;4859580;29;20597;-74
2022/07/18 08:58:06;;;;;;;2.60;2.40;;;;;;;;;;4859648;29;20118;-73
2022/07/18 09:00:33;;;;;;;2.42;2.15;;;;;;;;;;4859568;29;20045;-75
2022/07/18 09:03:00;;;;;;;2.42;2.22;;;;;;;;;;4876073;29;20475;-75
2022/07/18 09:05:25;;;;;;;2.30;2.20;;;;;;;;;;4875894;29;20040;-73
2022/07/18 09:07:52;;;;;;;2.65;2.20;;;;;;;;;;4874543;29;20072;-74
2022/07/18 09:10:18;;;;;;;2.55;2.35;;;;;;;;;;4874228;29;20088;-73
2022/07/18 09:12:57;;;;;;;2.75;1.98;;;;;;;;;;4874685;29;20056;-73
2022/07/18 09:15:23;;;;;;;2.88;1.88;;;;;;;;;;4874316;29;20429;-74
2022/07/18 09:17:49;;;;;;;6.18;2.10;;;;;;;;;;4875882;29;20056;-72
2022/07/18 09:20:16;;;;;;;3.63;1.90;;;;;;;;;;4875676;29;20489;-73
2022/07/18 09:22:43;;;;;;;2.10;2.00;;;;;;;;;;4875811;29;20040;-73
2022/07/18 09:25:12;;;;;;;2.05;1.85;;;;;;;;;;4874300;29;20052;-73
2022/07/18 09:27:40;;;;;;;3.17;2.15;;;;;;;;;;4875903;29;20093;-74
2022/07/18 09:30:25;;;;;;;2.30;2.20;;;;;;;;;;4875461;29;20044;-73
2022/07/18 09:33:04;;;;;;;3.72;2.20;;;;;;;;;;4875832;29;20056;-74
2022/07/18 09:35:33;;;;;;;2.30;2.20;;;;;;;;;;4859056;29;20060;-72
2022/07/18 09:37:59;;;;;;;1.83;1.73;;;;;;;;;;4875708;29;20049;-75
2022/07/18 09:40:26;;;;;;;2.72;2.20;;;;;;;;;;4875542;29;20454;-74
2022/07/18 09:42:53;;;;;;;5.03;2.10;;;;;;;;;;4875666;29;20041;-74
2022/07/18 09:45:23;;;;;;;1.98;1.88;;;;;;;;;;4877151;29;20064;-74
2022/07/18 09:47:50;;;;;;;2.30;2.00;;;;;;;;;;4879355;29;20048;-73
2022/07/18 09:50:27;;;;;;;3.92;2.30;;;;;;;;;;4878870;29;20045;-73
2022/07/18 09:52:57;;;;;;;3.40;2.40;;;;;;;;;;4879011;29;20060;-74
2022/07/18 09:55:22;;;;;;;3.33;2.03;;;;;;;;;;4879134;29;20061;-74
2022/07/18 09:58:02;;;;;;;1.80;1.70;;;;;;;;;;4862380;29;20052;-74
2022/07/18 10:00:29;;;;;;;4.32;2.08;;;;;;;;;;4879034;29;20104;-75
2022/07/18 10:02:56;;;;;;;2.20;2.10;;;;;;;;;;4878828;29;20045;-74
2022/07/18 10:05:22;;;;;;;2.60;2.40;;;;;;;;;;4879110;29;20052;-74
2022/07/18 10:07:48;;;;;;;2.92;2.30;;;;;;;;;;4862913;29;20052;-74
2022/07/18 10:10:15;;;;;;;2.40;2.30;;;;;;;;;;4878787;29;20044;-74
2022/07/18 10:12:41;;;;;;;3.30;2.42;;;;;;;;;;4862189;29;20144;-74
2022/07/18 10:15:07;;;;;;;2.40;2.25;;;;;;;;;;4878404;29;20136;-72
2022/07/18 10:17:33;;;;;;;2.42;2.33;;;;;;;;;;4878817;29;20146;-73
2022/07/18 10:20:05;;;;;;;2.05;1.95;;;;;;;;;;4878532;29;20045;-74
2022/07/18 10:22:38;;;;;;;2.00;1.90;;;;;;;;;;4877658;29;20072;-74
2022/07/18 10:25:05;;;;;;;1.77;1.60;;;;;;;;;;4877115;29;20052;-73
2022/07/18 10:27:46;;;;;;;3.42;2.40;;;;;;;;;;4877858;29;20037;-73
2022/07/18 10:30:13;;;;;;;2.63;2.50;;;;;;;;;;4878956;29;20056;-74
2022/07/18 10:32:39;;;;;;;2.83;2.60;;;;;;;;;;4879778;29;20051;-74
2022/07/18 10:35:08;;;;;;;2.50;2.30;;;;;;;;;;4878016;29;20060;-73
2022/07/18 10:37:34;;;;;;;2.35;2.20;;;;;;;;;;4877265;29;20141;-73
2022/07/18 10:40:19;;;;;;;2.67;2.40;;;;;;;;;;4877950;29;20063;-73
2022/07/18 10:42:45;;;;;;;2.95;2.20;;;;;;;;;;4861573;29;20510;-73
2022/07/18 10:45:41;;;;;;;4.53;3.00;;;;;;;;;;4861663;29;20134;-73
2022/07/18 10:48:26;;;;;;;2.58;2.38;;;;;;;;;;4877922;29;20053;-73
2022/07/18 10:51:13;;;;;;;2.58;2.38;;;;;;;;;;4877849;29;20084;-74
2022/07/18 10:54:02;;;;;;;2.10;2.00;;;;;;;;;;4878190;29;20044;-72
2022/07/18 10:56:28;;;;;;;2.35;2.15;;;;;;;;;;4877202;29;20124;-74
2022/07/18 10:58:54;;;;;;;2.25;2.03;;;;;;;;;;4877995;29;20577;-74
2022/07/18 11:01:20;;;;;;;2.13;2.03;;;;;;;;;;4877722;29;20100;-73
2022/07/18 11:03:46;;;;;;;3.30;2.30;;;;;;;;;;4860868;29;20403;-73
2022/07/18 11:06:12;;;;;;;2.53;2.42;;;;;;;;;;4876248;29;20514;-73
2022/07/18 11:08:38;;;;;;;3.63;2.10;;;;;;;;;;4878112;29;20117;-74
2022/07/18 11:11:05;;;;;;;4.70;2.90;;;;;;;;;;4877401;29;20040;-73
2022/07/18 11:13:31;;;;;;;2.38;2.13;;;;;;;;;;4877820;29;20037;-74
2022/07/18 11:16:09;;;;;;;2.90;2.05;;;;;;;;;;4877652;29;20057;-73
2022/07/18 11:18:39;;;;;;;2.28;2.10;;;;;;;;;;4845494;29;20105;-75
2022/07/18 11:21:17;;;;;;;4.85;3.10;;;;;;;;;;4877163;29;20089;-73
2022/07/18 11:23:43;;;;;;;3.65;2.40;;;;;;;;;;4860697;29;20080;-73
2022/07/18 11:26:08;;;;;;;3.30;2.70;;;;;;;;;;4877244;29;20052;-73
2022/07/18 11:28:34;;;;;;;2.83;2.60;;;;;;;;;;4876201;29;20052;-73
2022/07/18 11:31:02;;;;;;;5.40;2.30;;;;;;;;;;4877127;29;20095;-71
2022/07/18 11:33:28;;;;;;;3.88;2.33;;;;;;;;;;4860800;29;20049;-73
2022/07/18 11:36:07;;;;;;;2.40;2.20;;;;;;;;;;4876074;29;20071;-74
2022/07/18 11:38:37;;;;;;;2.25;2.10;;;;;;;;;;4877371;29;20073;-76
2022/07/18 11:41:03;;;;;;;1.98;1.88;;;;;;;;;;4860389;29;20294;-73
2022/07/18 11:43:29;;;;;;;2.75;2.47;;;;;;;;;;4860530;29;20207;-74
2022/07/18 11:46:05;;;;;;;3.65;2.30;;;;;;;;;;4877323;29;20171;-75
2022/07/18 11:48:32;;;;;;;4.80;2.40;;;;;;;;;;4877123;29;20076;-72
2022/07/18 23:58:51;;;;;;;2.28;1.98;;;;;;;;;;4855319;29;20067;-72
